Time;durP1;ratioP1;P1;durP2;ratioP2;P2;SDS_P1;SDS_P2;PMS_P1;PMS_P2;Temp;Humidity;BMP_temperature;BMP_pressure;BME280_temperature;BME280_humidity;BME280_pressure;Samples;Min_cycle;Max_cycle;Signal;HPM_P1;HPM_P2
2023/04/05 00:00:44;;;;;;;2.70;0.60;;;1.20;99.90;;;;;;5021383;28;20092;-84
2023/04/05 00:03:10;;;;;;;1.98;0.65;;;1.10;99.90;;;;;;5009894;28;20075;-84
2023/04/05 00:05:36;;;;;;;1.73;0.65;;;1.10;99.90;;;;;;5018121;28;20075;-84
2023/04/05 00:08:07;;;;;;;1.75;0.70;;;1.00;99.90;;;;;;5029094;28;20477;-84
2023/04/05 00:10:32;;;;;;;2.53;0.60;;;1.00;99.90;;;;;;5015681;28;20037;-85
2023/04/05 00:12:58;;;;;;;1.60;0.55;;;0.90;99.90;;;;;;5001623;28;20042;-84
2023/04/05 00:15:26;;;;;;;1.60;0.50;;;0.90;99.90;;;;;;5036246;28;20402;-84
2023/04/05 00:17:53;;;;;;;1.48;0.50;;;0.90;99.90;;;;;;5013805;28;20036;-83
2023/04/05 00:20:18;;;;;;;3.20;0.60;;;0.90;99.90;;;;;;5019687;28;20470;-84
2023/04/05 00:22:45;;;;;;;2.13;0.55;;;0.80;99.90;;;;;;5014583;28;20052;-84
2023/04/05 00:25:11;;;;;;;1.80;0.57;;;0.80;99.90;;;;;;5010889;28;20497;-85
2023/04/05 00:27:38;;;;;;;1.50;0.60;;;0.80;99.90;;;;;;5040098;28;20068;-84
2023/04/05 00:30:04;;;;;;;1.58;0.57;;;0.80;99.90;;;;;;5012593;28;20036;-84
2023/04/05 00:32:30;;;;;;;1.40;0.50;;;0.60;99.90;;;;;;5007925;28;20088;-84
2023/04/05 00:34:56;;;;;;;1.40;0.50;;;0.60;99.90;;;;;;5013683;28;20029;-85
2023/04/05 00:37:21;;;;;;;1.90;0.60;;;0.70;99.90;;;;;;5022992;28;20145;-84
2023/04/05 00:39:47;;;;;;;2.00;0.60;;;0.60;99.90;;;;;;5029439;28;20049;-84
2023/04/05 00:42:14;;;;;;;2.63;0.60;;;0.60;99.90;;;;;;5022441;28;20059;-84
2023/04/05 00:44:39;;;;;;;1.50;0.50;;;0.60;99.90;;;;;;5038326;28;20540;-83
2023/04/05 00:47:06;;;;;;;2.08;0.50;;;0.60;99.90;;;;;;5042973;28;20036;-84
2023/04/05 00:49:33;;;;;;;2.83;0.60;;;0.70;99.90;;;;;;5045221;28;20037;-84
2023/04/05 00:51:59;;;;;;;2.10;0.60;;;0.50;99.90;;;;;;5018103;28;20049;-84
2023/04/05 00:54:29;;;;;;;1.80;0.50;;;0.60;99.90;;;;;;5024888;28;20033;-84
2023/04/05 00:56:58;;;;;;;1.83;0.50;;;0.50;99.90;;;;;;5006356;28;20631;-84
2023/04/05 00:59:25;;;;;;;1.90;0.50;;;0.40;99.90;;;;;;5004047;28;20378;-84
2023/04/05 01:02:20;;;;;;;1.88;0.50;;;0.50;99.90;;;;;;5021387;28;20038;-83
2023/04/05 01:04:51;;;;;;;2.03;0.47;;;0.40;99.90;;;;;;5011697;28;20049;-84
2023/04/05 01:07:52;;;;;;;2.20;0.60;;;0.40;99.90;;;;;;5027903;28;20021;-84
2023/04/05 01:10:21;;;;;;;2.70;0.60;;;0.40;99.90;;;;;;5027641;28;20482;-84
2023/04/05 01:12:47;;;;;;;1.67;0.43;;;0.40;99.90;;;;;;5007401;28;20132;-84
2023/04/05 01:15:13;;;;;;;2.25;0.50;;;0.40;99.90;;;;;;5030312;28;20494;-84
2023/04/05 01:17:40;;;;;;;1.77;0.43;;;0.20;99.90;;;;;;5005552;28;20037;-83
2023/04/05 01:20:10;;;;;;;1.65;0.55;;;0.40;99.90;;;;;;5007659;28;20113;-83
2023/04/05 01:22:42;;;;;;;3.03;0.60;;;0.20;99.90;;;;;;5011704;28;20490;-85
2023/04/05 01:25:27;;;;;;;1.45;0.50;;;0.20;99.90;;;;;;5012823;28;20030;-84
2023/04/05 01:28:14;;;;;;;2.53;0.55;;;0.30;99.90;;;;;;5019472;28;20071;-83
2023/04/05 01:30:49;;;;;;;1.95;0.50;;;0.30;99.90;;;;;;5019928;28;20033;-85
2023/04/05 01:33:25;;;;;;;1.98;0.60;;;0.00;99.90;;;;;;5047571;28;20501;-85
2023/04/05 01:36:03;;;;;;;2.03;0.50;;;0.10;99.90;;;;;;5016290;28;20029;-84
2023/04/05 01:38:30;;;;;;;1.75;0.50;;;0.10;99.90;;;;;;5023309;28;20029;-85
2023/04/05 01:40:56;;;;;;;1.70;0.50;;;0.10;99.90;;;;;;5021289;28;20017;-84
2023/04/05 01:43:22;;;;;;;1.30;0.40;;;0.10;99.90;;;;;;5016700;28;20148;-83
2023/04/05 01:45:48;;;;;;;1.90;0.60;;;0.20;99.90;;;;;;5048453;28;20037;-85
2023/04/05 01:48:14;;;;;;;1.92;0.50;;;0.10;99.90;;;;;;5027525;28;20025;-83
2023/04/05 01:50:40;;;;;;;1.75;0.50;;;0.00;99.90;;;;;;5013761;28;20054;-85
2023/04/05 01:53:07;;;;;;;1.55;0.40;;;-0.10;99.90;;;;;;5025579;28;20499;-84
2023/04/05 01:55:34;;;;;;;1.50;0.40;;;-0.10;99.90;;;;;;5013748;28;20164;-85
2023/04/05 01:58:00;;;;;;;2.28;0.50;;;-0.20;99.90;;;;;;5008150;28;20259;-85
2023/04/05 02:00:26;;;;;;;1.15;0.40;;;-0.20;99.90;;;;;;5018318;28;20021;-83
2023/04/05 02:02:52;;;;;;;1.67;0.50;;;-0.20;99.90;;;;;;5030044;28;20108;-84
2023/04/05 02:05:18;;;;;;;1.58;0.47;;;-0.30;99.90;;;;;;5016833;28;20175;-85
2023/04/05 02:07:43;;;;;;;1.92;0.50;;;-0.20;99.90;;;;;;5035503;28;20038;-85
2023/04/05 02:10:10;;;;;;;1.63;0.50;;;-0.20;99.90;;;;;;5012140;28;20115;-85
2023/04/05 02:12:37;;;;;;;1.65;0.50;;;-0.30;99.90;;;;;;5017573;28;20068;-85
2023/04/05 02:15:03;;;;;;;1.58;0.50;;;-0.20;99.90;;;;;;5027734;28;20104;-84
2023/04/05 02:17:38;;;;;;;2.20;0.40;;;-0.40;99.90;;;;;;5026684;28;20034;-86
2023/04/05 02:20:09;;;;;;;1.35;0.45;;;-0.50;99.90;;;;;;5017018;28;20040;-83
2023/04/05 02:22:35;;;;;;;1.25;0.45;;;-0.40;99.90;;;;;;5021836;28;20041;-85
2023/04/05 02:25:02;;;;;;;1.77;0.55;;;-0.40;99.90;;;;;;5022598;28;20021;-86
2023/04/05 02:27:32;;;;;;;1.38;0.38;;;-0.50;99.90;;;;;;5046197;28;20417;-86
2023/04/05 02:29:57;;;;;;;1.67;0.40;;;-0.40;99.90;;;;;;5009548;28;20025;-86
2023/04/05 02:32:24;;;;;;;1.70;0.70;;;-0.40;99.90;;;;;;5029680;28;20120;-86
2023/04/05 02:34:49;;;;;;;1.45;0.40;;;-0.50;99.90;;;;;;5045879;28;20288;-86
2023/04/05 02:37:15;;;;;;;1.52;0.40;;;-0.50;99.90;;;;;;5019225;28;20079;-85
2023/04/05 02:39:41;;;;;;;1.85;0.50;;;-0.50;99.90;;;;;;5027829;28;20033;-85
2023/04/05 02:42:07;;;;;;;1.23;0.50;;;-0.60;99.90;;;;;;5044018;28;20037;-86
2023/04/05 02:44:32;;;;;;;2.33;0.52;;;-0.60;99.90;;;;;;5009751;28;20501;-85
2023/04/05 02:46:58;;;;;;;1.98;0.40;;;-0.60;99.90;;;;;;5002827;28;20037;-85
2023/04/05 02:49:31;;;;;;;1.98;0.52;;;-0.50;99.90;;;;;;5032671;28;20036;-86
2023/04/05 02:52:00;;;;;;;1.77;0.70;;;-0.50;99.90;;;;;;5018932;28;20029;-84
2023/04/05 02:54:25;;;;;;;1.67;0.50;;;-0.60;99.90;;;;;;5010183;28;20064;-86
2023/04/05 02:57:01;;;;;;;1.88;0.50;;;-0.50;99.90;;;;;;5011410;28;20034;-85
2023/04/05 02:59:27;;;;;;;2.70;0.60;;;-0.60;99.90;;;;;;5022869;28;20557;-85
2023/04/05 03:01:53;;;;;;;2.22;0.60;;;-0.60;99.90;;;;;;5006809;28;20121;-86
2023/04/05 03:04:25;;;;;;;2.45;0.70;;;-0.70;99.90;;;;;;5029749;28;20061;-85
2023/04/05 03:06:53;;;;;;;1.65;0.50;;;-0.70;99.90;;;;;;5012417;28;20026;-87
2023/04/05 03:09:20;;;;;;;2.15;0.45;;;-0.70;99.90;;;;;;5031840;28;20374;-86
2023/04/05 03:11:50;;;;;;;1.98;0.50;;;-0.80;99.90;;;;;;5045695;28;20056;-86
2023/04/05 03:14:16;;;;;;;1.60;0.47;;;-0.80;99.90;;;;;;5011365;28;20026;-86
2023/04/05 03:16:45;;;;;;;1.48;0.47;;;-0.80;99.90;;;;;;5023302;28;20099;-85
2023/04/05 03:19:21;;;;;;;1.85;0.45;;;-0.90;99.90;;;;;;5025518;28;20116;-87
2023/04/05 03:21:48;;;;;;;1.40;0.40;;;-1.00;99.90;;;;;;5028952;28;20375;-84
2023/04/05 03:24:24;;;;;;;2.60;0.60;;;-0.90;99.90;;;;;;5018200;28;20034;-85
2023/04/05 03:26:50;;;;;;;1.50;0.40;;;-0.90;99.90;;;;;;5015182;28;20041;-84
2023/04/05 03:29:19;;;;;;;2.45;0.50;;;-0.80;99.90;;;;;;5025606;28;20097;-85
2023/04/05 03:31:46;;;;;;;1.70;0.52;;;-0.90;99.90;;;;;;5017248;28;20037;-85
2023/04/05 03:34:13;;;;;;;2.38;0.55;;;-1.00;99.90;;;;;;5017676;28;20049;-85
2023/04/05 03:36:44;;;;;;;1.75;0.50;;;-0.80;99.90;;;;;;5009616;28;20033;-85
2023/04/05 03:39:21;;;;;;;2.00;0.52;;;-1.10;99.90;;;;;;5015916;28;20036;-85
2023/04/05 03:41:47;;;;;;;1.70;0.50;;;-1.00;99.90;;;;;;5005478;28;20025;-85
2023/04/05 03:44:13;;;;;;;2.25;0.50;;;-1.10;99.90;;;;;;5014099;28;20036;-86
2023/04/05 03:46:38;;;;;;;2.17;0.45;;;-0.90;99.90;;;;;;5018495;28;20068;-84
2023/04/05 03:49:06;;;;;;;1.70;0.43;;;-1.00;99.90;;;;;;5012372;28;20105;-86
2023/04/05 03:51:32;;;;;;;1.40;0.40;;;-1.00;99.90;;;;;;5015496;28;20462;-86
2023/04/05 03:53:58;;;;;;;2.20;0.50;;;-1.00;99.90;;;;;;5009425;28;20412;-84
2023/04/05 03:56:26;;;;;;;2.25;0.60;;;-1.00;99.90;;;;;;5015852;28;20479;-85
2023/04/05 03:58:52;;;;;;;2.65;0.60;;;-1.20;99.90;;;;;;5016797;28;20035;-85
2023/04/05 04:01:23;;;;;;;1.90;0.60;;;-1.10;99.90;;;;;;5016795;28;20125;-84
2023/04/05 04:03:48;;;;;;;1.63;0.50;;;-1.10;99.90;;;;;;5007387;28;20120;-85
2023/04/05 04:06:14;;;;;;;1.65;0.50;;;-1.10;99.90;;;;;;5016480;28;20024;-85
2023/04/05 04:08:40;;;;;;;1.80;0.50;;;-1.10;99.90;;;;;;5020603;28;20035;-85
2023/04/05 04:11:07;;;;;;;1.45;0.40;;;-1.10;99.90;;;;;;5016654;28;20022;-83
2023/04/05 04:13:36;;;;;;;1.90;0.60;;;-1.10;99.90;;;;;;5022757;28;20068;-85
2023/04/05 04:16:07;;;;;;;2.42;0.60;;;-1.20;99.90;;;;;;5033087;28;20085;-85
2023/04/05 04:19:05;;;;;;;2.30;0.50;;;-1.20;99.90;;;;;;4967739;28;20031;-85
2023/04/05 04:21:38;;;;;;;2.15;0.60;;;-1.10;99.90;;;;;;4954132;28;20409;-84
2023/04/05 04:24:26;;;;;;;1.70;0.52;;;-1.20;99.90;;;;;;4959846;28;20521;-84
2023/04/05 04:27:10;;;;;;;1.70;0.55;;;-1.20;99.90;;;;;;4957658;28;20129;-84
2023/04/05 04:29:48;;;;;;;1.23;0.45;;;-1.30;99.90;;;;;;4953997;28;20042;-85
2023/04/05 04:32:50;;;;;;;2.25;0.43;;;-1.30;99.90;;;;;;4975608;28;20506;-85
2023/04/05 04:35:37;;;;;;;1.88;0.47;;;-1.50;99.90;;;;;;4969503;28;20094;-83
2023/04/05 04:38:17;;;;;;;1.50;0.40;;;-1.60;99.90;;;;;;4957443;28;20518;-84
2023/04/05 04:41:21;;;;;;;1.65;0.40;;;-1.50;99.90;;;;;;4970653;28;20039;-84
2023/04/05 04:44:13;;;;;;;1.73;0.50;;;-1.40;99.90;;;;;;4956817;28;20046;-85
2023/04/05 04:46:57;;;;;;;1.80;0.40;;;-1.50;99.90;;;;;;4973627;28;20031;-84
2023/04/05 04:49:44;;;;;;;1.55;0.50;;;-1.50;99.90;;;;;;4973828;28;20109;-85
2023/04/05 04:52:09;;;;;;;1.80;0.50;;;-1.30;99.90;;;;;;4971874;28;20384;-84
2023/04/05 04:54:41;;;;;;;1.50;0.50;;;-1.40;99.90;;;;;;4979710;28;20025;-84
2023/04/05 04:57:06;;;;;;;1.83;0.50;;;-1.30;99.90;;;;;;5013833;28;20517;-84
2023/04/05 04:59:32;;;;;;;1.98;0.50;;;-1.20;99.90;;;;;;5016588;28;20041;-83
2023/04/05 05:01:58;;;;;;;1.55;0.60;;;-1.40;99.90;;;;;;5019393;28;20120;-84
2023/04/05 05:04:23;;;;;;;1.50;0.40;;;-1.50;99.90;;;;;;5020638;28;20105;-84
2023/04/05 05:06:51;;;;;;;2.90;0.50;;;-1.30;99.90;;;;;;5012355;28;20034;-84
2023/04/05 05:09:18;;;;;;;2.50;0.60;;;-1.30;99.90;;;;;;5011159;28;20075;-84
2023/04/05 05:11:50;;;;;;;2.33;0.50;;;-1.40;99.90;;;;;;5009434;28;20057;-84
2023/04/05 05:14:16;;;;;;;1.75;0.50;;;-1.40;99.90;;;;;;5007042;28;20116;-85
2023/04/05 05:16:42;;;;;;;2.10;0.50;;;-1.60;99.90;;;;;;5014670;28;20033;-83
2023/04/05 05:19:07;;;;;;;1.52;0.52;;;-1.30;99.90;;;;;;5017623;28;20076;-84
2023/04/05 05:21:40;;;;;;;2.42;0.65;;;-1.20;99.90;;;;;;5021560;28;20040;-83
2023/04/05 05:24:08;;;;;;;4.50;0.73;;;-1.10;99.90;;;;;;5034430;28;20041;-83
2023/04/05 05:26:35;;;;;;;2.58;0.60;;;-1.40;99.90;;;;;;5019717;28;20028;-83
2023/04/05 05:29:01;;;;;;;2.67;0.50;;;-1.30;99.90;;;;;;5017954;28;20065;-84
2023/04/05 05:31:29;;;;;;;1.75;0.50;;;-1.30;99.90;;;;;;5016666;28;20831;-83
2023/04/05 05:33:55;;;;;;;1.85;0.75;;;-1.30;99.90;;;;;;5021720;28;20063;-83
2023/04/05 05:36:22;;;;;;;1.95;0.50;;;-1.30;99.90;;;;;;5044692;28;20087;-83
2023/04/05 05:38:48;;;;;;;2.13;0.65;;;-1.20;99.90;;;;;;5020219;28;20029;-83
2023/04/05 05:41:13;;;;;;;2.00;0.60;;;-1.10;99.90;;;;;;5021807;28;20037;-84
2023/04/05 05:43:39;;;;;;;1.95;0.55;;;-1.10;99.90;;;;;;5032723;28;20053;-82
2023/04/05 05:46:05;;;;;;;2.63;0.80;;;-0.90;99.90;;;;;;5032013;28;20087;-84
2023/04/05 05:48:30;;;;;;;4.78;1.48;;;-0.80;99.90;;;;;;5019730;28;20072;-83
2023/04/05 05:51:00;;;;;;;3.22;1.17;;;-0.80;99.90;;;;;;5023371;28;20089;-83
2023/04/05 05:53:26;;;;;;;5.30;1.05;;;-0.70;99.90;;;;;;5009607;28;20034;-83
2023/04/05 05:55:51;;;;;;;2.22;0.80;;;-0.60;99.90;;;;;;5008510;28;20029;-83
2023/04/05 05:58:17;;;;;;;3.10;1.02;;;-0.70;99.90;;;;;;5013903;28;20034;-83
2023/04/05 06:00:43;;;;;;;3.20;1.00;;;-0.70;99.90;;;;;;5017692;28;20026;-83
2023/04/05 06:03:09;;;;;;;2.60;0.73;;;-0.80;99.90;;;;;;5017333;28;20037;-83
2023/04/05 06:05:35;;;;;;;2.47;0.90;;;-0.70;99.90;;;;;;5015637;28;20452;-84
2023/04/05 06:08:02;;;;;;;3.33;0.80;;;-0.50;99.90;;;;;;5030314;28;20037;-83
2023/04/05 06:10:29;;;;;;;2.97;0.98;;;-0.30;99.90;;;;;;5019815;28;20032;-84
2023/04/05 06:12:55;;;;;;;5.50;1.00;;;-0.30;99.90;;;;;;5012589;28;20057;-84
2023/04/05 06:15:20;;;;;;;2.50;1.00;;;-0.30;99.90;;;;;;5044359;28;20040;-83
2023/04/05 06:17:46;;;;;;;3.00;1.38;;;-0.10;99.90;;;;;;5036825;28;20481;-84
2023/04/05 06:20:12;;;;;;;2.65;0.75;;;0.00;99.90;;;;;;5016745;28;20029;-83
2023/04/05 06:22:39;;;;;;;5.97;0.95;;;0.10;99.90;;;;;;5022737;28;20040;-84
2023/04/05 06:25:07;;;;;;;4.20;0.80;;;0.20;99.90;;;;;;5017249;28;20062;-84
2023/04/05 06:27:33;;;;;;;2.00;0.80;;;0.30;99.90;;;;;;5017969;28;20033;-85
2023/04/05 06:29:59;;;;;;;2.53;0.90;;;0.40;99.90;;;;;;5021884;28;20062;-83
2023/04/05 06:32:24;;;;;;;2.30;0.90;;;0.50;99.90;;;;;;5024313;28;20029;-84
2023/04/05 06:34:50;;;;;;;1.92;0.70;;;0.60;99.90;;;;;;5017910;28;20441;-83
2023/04/05 06:37:16;;;;;;;2.20;0.70;;;0.80;99.90;;;;;;5025910;28;20025;-84
2023/04/05 06:39:41;;;;;;;1.95;0.60;;;0.90;99.90;;;;;;5017315;28;20385;-84
2023/04/05 06:42:07;;;;;;;3.45;0.90;;;1.00;99.90;;;;;;5021727;28;20032;-83
2023/04/05 06:44:41;;;;;;;2.13;0.73;;;1.20;99.90;;;;;;5047106;28;20088;-83
2023/04/05 06:47:09;;;;;;;3.70;0.80;;;1.30;99.90;;;;;;5024238;28;20037;-84
2023/04/05 06:49:35;;;;;;;2.95;1.23;;;1.50;99.90;;;;;;5037702;28;20033;-83
2023/04/05 06:52:01;;;;;;;3.15;0.88;;;1.70;99.90;;;;;;5028586;28;20030;-84
2023/04/05 06:54:27;;;;;;;2.03;0.70;;;1.80;99.90;;;;;;5022611;28;20416;-83
2023/04/05 06:56:53;;;;;;;2.55;1.10;;;2.00;99.90;;;;;;5015562;28;20116;-83
2023/04/05 06:59:18;;;;;;;3.85;1.65;;;2.20;99.90;;;;;;5011064;28;20033;-84
2023/04/05 07:01:44;;;;;;;5.68;1.65;;;2.40;99.90;;;;;;5023886;28;20140;-84
2023/04/05 07:04:10;;;;;;;3.90;1.67;;;2.50;99.90;;;;;;5011311;28;20048;-83
2023/04/05 07:06:37;;;;;;;3.33;1.50;;;2.70;99.90;;;;;;5017875;28;20075;-83
2023/04/05 07:09:04;;;;;;;2.47;0.98;;;2.80;99.90;;;;;;5011809;28;20030;-84
2023/04/05 07:11:31;;;;;;;2.30;0.77;;;3.00;99.90;;;;;;5020806;28;20046;-83
2023/04/05 07:14:00;;;;;;;4.28;1.08;;;3.30;99.90;;;;;;5015095;28;20478;-84
2023/04/05 07:16:28;;;;;;;7.97;2.70;;;3.40;99.90;;;;;;5022416;28;20021;-83
2023/04/05 07:18:55;;;;;;;5.05;2.40;;;3.40;99.90;;;;;;5021129;28;20100;-84
2023/04/05 07:21:22;;;;;;;4.95;2.03;;;3.60;99.90;;;;;;5020515;28;20030;-84
2023/04/05 07:23:47;;;;;;;2.53;1.10;;;3.90;99.90;;;;;;5020610;28;20033;-84
2023/04/05 07:26:13;;;;;;;3.03;1.92;;;4.00;99.90;;;;;;5037253;28;20504;-84
2023/04/05 07:28:39;;;;;;;4.38;2.20;;;4.10;99.90;;;;;;5024243;28;20041;-83
2023/04/05 07:31:06;;;;;;;3.97;1.77;;;4.30;99.90;;;;;;5018385;28;20567;-84
2023/04/05 07:33:32;;;;;;;4.22;1.33;;;4.50;99.90;;;;;;5017607;28;20036;-85
2023/04/05 07:35:58;;;;;;;4.55;1.65;;;4.70;99.90;;;;;;5011336;28;20045;-84
2023/04/05 07:38:25;;;;;;;4.30;1.00;;;4.90;99.90;;;;;;5024654;28;20422;-84
2023/04/05 07:40:51;;;;;;;3.70;1.38;;;5.10;99.90;;;;;;5022886;28;20068;-83
2023/04/05 07:43:18;;;;;;;2.42;1.02;;;5.10;99.90;;;;;;5030473;28;20148;-84
2023/04/05 07:45:44;;;;;;;3.53;0.90;;;5.30;99.90;;;;;;5031723;28;20037;-82
2023/04/05 07:48:10;;;;;;;3.88;1.08;;;5.50;99.90;;;;;;5017920;28;20075;-84
2023/04/05 07:50:38;;;;;;;3.63;1.55;;;5.60;99.90;;;;;;5019009;28;20103;-83
2023/04/05 07:53:04;;;;;;;4.78;1.55;;;5.60;99.90;;;;;;5022243;28;20036;-83
2023/04/05 07:55:30;;;;;;;3.33;1.55;;;5.90;99.90;;;;;;5018659;28;20057;-82
2023/04/05 07:57:57;;;;;;;2.63;1.05;;;6.10;99.90;;;;;;5011666;28;20084;-84
2023/04/05 08:00:22;;;;;;;3.75;1.55;;;6.20;99.90;;;;;;5018092;28;20033;-83
2023/04/05 08:02:48;;;;;;;4.07;1.75;;;6.30;99.90;;;;;;5020437;28;20078;-84
2023/04/05 08:05:14;;;;;;;3.95;1.25;;;6.40;99.90;;;;;;5034054;28;20112;-82
2023/04/05 08:07:40;;;;;;;2.85;0.90;;;6.70;99.90;;;;;;5028331;28;20081;-83
2023/04/05 08:10:06;;;;;;;5.03;1.08;;;6.90;99.90;;;;;;5022314;28;20120;-83
2023/04/05 08:12:33;;;;;;;2.92;1.30;;;6.90;99.90;;;;;;5011329;28;20056;-82
2023/04/05 08:14:59;;;;;;;2.95;1.05;;;7.00;99.90;;;;;;5015166;28;20029;-83
2023/04/05 08:17:27;;;;;;;5.00;1.85;;;7.20;99.90;;;;;;5020746;28;20053;-83
2023/04/05 08:19:53;;;;;;;2.00;0.80;;;7.30;99.90;;;;;;5020608;28;20115;-83
2023/04/05 08:22:19;;;;;;;3.13;1.20;;;7.50;99.90;;;;;;5026026;28;20069;-84
2023/04/05 08:24:45;;;;;;;3.25;1.00;;;7.50;99.90;;;;;;5018933;28;20021;-83
2023/04/05 08:27:11;;;;;;;3.22;1.13;;;7.60;99.90;;;;;;5023090;28;20031;-84
2023/04/05 08:29:37;;;;;;;3.30;1.02;;;7.80;99.90;;;;;;5029893;28;20436;-84
2023/04/05 08:32:03;;;;;;;4.25;1.95;;;8.10;99.90;;;;;;5007836;28;20112;-84
2023/04/05 08:34:31;;;;;;;3.40;2.10;;;7.70;99.90;;;;;;5019563;28;20033;-84
2023/04/05 08:36:58;;;;;;;3.15;1.45;;;7.80;99.90;;;;;;5020142;28;20033;-85
2023/04/05 08:39:25;;;;;;;3.90;1.33;;;7.90;99.90;;;;;;5034894;28;20458;-84
2023/04/05 08:42:11;;;;;;;2.90;1.33;;;8.30;99.90;;;;;;5016314;28;20071;-84
2023/04/05 08:44:39;;;;;;;2.78;1.17;;;8.30;99.90;;;;;;5006443;28;20503;-85
2023/04/05 08:47:06;;;;;;;4.20;1.40;;;8.20;99.90;;;;;;5033103;28;20441;-84
2023/04/05 08:49:32;;;;;;;2.58;0.85;;;8.40;99.90;;;;;;5009933;28;20120;-85
2023/04/05 08:52:00;;;;;;;3.60;1.30;;;8.70;99.90;;;;;;5040908;28;20542;-86
2023/04/05 08:54:26;;;;;;;1.73;0.70;;;9.00;99.90;;;;;;5017334;28;20034;-85
2023/04/05 08:56:53;;;;;;;2.80;1.13;;;9.10;99.90;;;;;;5032409;28;20037;-86
2023/04/05 08:59:19;;;;;;;3.03;1.33;;;9.30;99.90;;;;;;5018783;28;20377;-86
2023/04/05 09:01:47;;;;;;;2.38;0.90;;;9.10;99.90;;;;;;5017270;28;20439;-85
2023/04/05 09:04:17;;;;;;;2.25;0.70;;;9.40;99.90;;;;;;5017904;28;20120;-87
2023/04/05 09:06:44;;;;;;;1.90;0.75;;;9.70;99.90;;;;;;5025648;28;20052;-85
2023/04/05 09:09:10;;;;;;;1.42;0.50;;;9.80;99.90;;;;;;5016666;28;20401;-85
2023/04/05 09:11:37;;;;;;;2.55;0.70;;;9.80;99.90;;;;;;5013945;28;20044;-84
2023/04/05 09:14:06;;;;;;;2.28;1.02;;;9.70;99.90;;;;;;5015176;28;20033;-85
2023/04/05 09:16:41;;;;;;;4.40;1.40;;;9.40;99.90;;;;;;5025086;28;20449;-85
2023/04/05 09:19:08;;;;;;;2.28;1.10;;;9.50;99.90;;;;;;5019819;28;20028;-87
2023/04/05 09:22:05;;;;;;;2.85;0.80;;;9.80;99.90;;;;;;5018460;28;20028;-86
2023/04/05 09:24:40;;;;;;;1.70;0.70;;;9.80;99.90;;;;;;5028133;28;20045;-85
2023/04/05 09:27:14;;;;;;;1.65;0.50;;;9.80;99.90;;;;;;5034483;28;20022;-85
2023/04/05 09:29:42;;;;;;;2.75;0.63;;;9.90;99.90;;;;;;5007095;28;20109;-84
2023/04/05 09:32:10;;;;;;;1.67;0.60;;;10.00;99.90;;;;;;5005421;28;20030;-86
2023/04/05 09:34:37;;;;;;;1.00;0.40;;;10.10;99.90;;;;;;5011573;28;20029;-85
2023/04/05 09:37:15;;;;;;;1.65;0.80;;;10.20;99.90;;;;;;5030928;28;20029;-85
2023/04/05 09:39:42;;;;;;;2.50;0.65;;;10.20;99.90;;;;;;5026157;28;20056;-86
2023/04/05 09:42:09;;;;;;;2.30;0.70;;;10.20;99.90;;;;;;5026327;28;20532;-86
2023/04/05 09:44:54;;;;;;;2.75;0.60;;;10.40;99.90;;;;;;5014527;28;20024;-85
2023/04/05 09:47:23;;;;;;;1.75;0.77;;;10.60;99.90;;;;;;5036834;28;20026;-86
2023/04/05 09:49:53;;;;;;;3.00;0.60;;;10.40;99.90;;;;;;5016302;28;20053;-86
2023/04/05 09:52:24;;;;;;;1.40;0.60;;;10.40;99.90;;;;;;5036177;28;20068;-83
2023/04/05 09:54:55;;;;;;;1.75;0.75;;;10.40;99.90;;;;;;5037285;28;20020;-84
2023/04/05 09:57:22;;;;;;;2.30;0.60;;;10.40;99.90;;;;;;5022435;28;20208;-84
2023/04/05 09:59:48;;;;;;;1.38;0.50;;;10.10;99.90;;;;;;5022082;28;20037;-85
2023/04/05 10:02:15;;;;;;;2.00;0.70;;;10.60;99.90;;;;;;5040925;28;20504;-84
2023/04/05 10:04:42;;;;;;;1.85;0.90;;;10.70;99.90;;;;;;5035158;28;20063;-85
2023/04/05 10:07:10;;;;;;;2.67;0.55;;;11.10;99.90;;;;;;5012634;28;20051;-85
2023/04/05 10:09:37;;;;;;;1.95;0.73;;;11.10;99.90;;;;;;5011735;28;20380;-83
2023/04/05 10:12:03;;;;;;;1.58;0.60;;;11.10;99.90;;;;;;5034663;28;20536;-86
2023/04/05 10:14:29;;;;;;;2.10;0.70;;;11.00;99.90;;;;;;5025646;28;20030;-84
2023/04/05 10:17:02;;;;;;;1.95;0.60;;;10.60;99.90;;;;;;5040175;28;20026;-84
2023/04/05 10:20:07;;;;;;;1.67;0.47;;;11.00;99.90;;;;;;5019013;28;20029;-85
2023/04/05 10:22:59;;;;;;;2.65;1.25;;;11.20;99.90;;;;;;5022199;28;20041;-82
2023/04/05 10:25:48;;;;;;;2.03;0.60;;;10.90;99.90;;;;;;5028019;28;20053;-83
2023/04/05 10:28:36;;;;;;;1.43;0.53;;;11.30;99.90;;;;;;5009210;28;20037;-84
2023/04/05 10:31:20;;;;;;;3.38;0.93;;;11.40;99.90;;;;;;5021480;28;20139;-85
2023/04/05 10:33:48;;;;;;;3.10;1.15;;;10.90;99.90;;;;;;5036097;28;20045;-82
2023/04/05 10:36:40;;;;;;;2.03;0.70;;;10.80;99.90;;;;;;5035774;28;20021;-83
2023/04/05 10:39:28;;;;;;;2.42;0.60;;;11.00;99.90;;;;;;5037215;28;20030;-84
2023/04/05 10:42:00;;;;;;;1.80;0.63;;;11.20;99.90;;;;;;5016111;28;20029;-83
2023/04/05 10:44:30;;;;;;;2.33;0.60;;;11.50;99.90;;;;;;5029160;28;20501;-82
2023/04/05 10:46:57;;;;;;;2.28;0.80;;;11.60;99.90;;;;;;5020932;28;20026;-84
2023/04/05 10:49:33;;;;;;;2.67;0.70;;;11.30;99.90;;;;;;5021617;28;20116;-84
2023/04/05 10:51:59;;;;;;;1.80;0.63;;;11.60;99.90;;;;;;5039862;28;20128;-83
2023/04/05 10:54:27;;;;;;;2.33;0.52;;;11.90;99.90;;;;;;5023019;28;20503;-82
2023/04/05 10:56:53;;;;;;;1.67;0.40;;;11.90;99.90;;;;;;5021848;28;20029;-85
2023/04/05 10:59:20;;;;;;;1.63;0.60;;;11.70;99.90;;;;;;5039394;28;20030;-84
2023/04/05 11:01:47;;;;;;;5.82;0.90;;;12.20;99.90;;;;;;5022406;28;20053;-84
2023/04/05 11:04:16;;;;;;;1.73;0.90;;;12.10;99.90;;;;;;5027810;28;20166;-83
2023/04/05 11:06:42;;;;;;;2.42;0.60;;;11.40;99.90;;;;;;5023051;28;20041;-82
2023/04/05 11:09:19;;;;;;;2.28;0.80;;;11.60;99.90;;;;;;5010248;28;20079;-82
2023/04/05 11:11:49;;;;;;;1.83;0.65;;;11.90;99.90;;;;;;5035885;28;20033;-84
2023/04/05 11:14:21;;;;;;;1.77;0.70;;;11.90;99.90;;;;;;5018132;28;20078;-82
2023/04/05 11:16:52;;;;;;;4.00;0.70;;;12.00;99.90;;;;;;5033949;28;20029;-82
2023/04/05 11:19:18;;;;;;;2.08;0.50;;;11.80;99.90;;;;;;5035210;28;20037;-82
2023/04/05 11:21:44;;;;;;;2.90;0.60;;;11.80;99.90;;;;;;5023344;28;20040;-82
2023/04/05 11:24:14;;;;;;;3.67;1.02;;;11.70;99.90;;;;;;5048377;28;20041;-81
2023/04/05 11:26:40;;;;;;;2.28;0.60;;;11.30;99.90;;;;;;5016560;28;20021;-82
2023/04/05 11:29:06;;;;;;;3.00;0.70;;;11.80;99.90;;;;;;5028316;28;20071;-81
2023/04/05 11:31:32;;;;;;;2.25;0.60;;;12.00;99.90;;;;;;5010787;28;20464;-82
2023/04/05 11:34:08;;;;;;;4.05;0.60;;;12.00;99.90;;;;;;5032159;28;20116;-83
2023/04/05 11:36:50;;;;;;;4.13;1.02;;;11.80;99.90;;;;;;5033798;28;20037;-83
2023/04/05 11:39:21;;;;;;;1.70;0.60;;;11.70;99.90;;;;;;5037287;28;20446;-83
2023/04/05 11:42:01;;;;;;;2.38;0.60;;;12.40;99.90;;;;;;5027413;28;20025;-83
2023/04/05 11:44:50;;;;;;;1.08;0.40;;;12.30;99.90;;;;;;5041816;28;20065;-82
2023/04/05 11:47:17;;;;;;;2.00;0.98;;;12.20;99.90;;;;;;5018062;28;20052;-82
2023/04/05 11:49:46;;;;;;;2.28;1.35;;;11.80;99.90;;;;;;5014601;28;20385;-83
2023/04/05 11:52:20;;;;;;;3.25;1.17;;;11.70;99.90;;;;;;5031993;28;20528;-83
2023/04/05 11:54:46;;;;;;;2.05;0.50;;;11.90;99.90;;;;;;5032195;28;20028;-83
2023/04/05 11:57:20;;;;;;;2.53;0.60;;;12.00;99.90;;;;;;5018583;28;20037;-82
2023/04/05 11:59:48;;;;;;;3.47;0.90;;;12.00;99.90;;;;;;5031801;28;20075;-82
2023/04/05 12:02:14;;;;;;;2.50;0.80;;;11.70;99.90;;;;;;5034971;28;20072;-82
2023/04/05 12:04:40;;;;;;;1.42;0.57;;;11.70;99.90;;;;;;5040219;28;20029;-84
2023/04/05 12:07:10;;;;;;;1.88;0.93;;;11.90;99.90;;;;;;5034890;28;20041;-83
2023/04/05 12:10:03;;;;;;;1.83;0.50;;;12.30;99.90;;;;;;5032537;28;20038;-84
2023/04/05 12:12:37;;;;;;;1.70;0.70;;;12.50;99.90;;;;;;5032939;28;20483;-83
2023/04/05 12:15:04;;;;;;;2.00;0.55;;;12.40;99.90;;;;;;5008215;28;20029;-82
2023/04/05 12:17:57;;;;;;;1.15;0.43;;;12.70;99.70;;;;;;5016340;28;20047;-82
2023/04/05 12:20:24;;;;;;;1.98;0.50;;;12.90;99.90;;;;;;5029695;28;20041;-84
2023/04/05 12:22:54;;;;;;;1.10;0.50;;;12.80;99.90;;;;;;5038667;28;20040;-83
2023/04/05 12:25:21;;;;;;;1.52;0.50;;;12.60;99.90;;;;;;5030118;28;20041;-84
2023/04/05 12:27:47;;;;;;;3.55;1.45;;;12.70;99.90;;;;;;5028459;28;20031;-82
2023/04/05 12:30:20;;;;;;;2.38;0.93;;;12.50;99.90;;;;;;5040723;28;20029;-83
2023/04/05 12:32:53;;;;;;;2.90;0.88;;;12.50;99.90;;;;;;5023669;28;20036;-82
2023/04/05 12:35:19;;;;;;;1.75;0.80;;;12.40;99.90;;;;;;5033900;28;20087;-83
2023/04/05 12:37:45;;;;;;;2.72;1.02;;;12.90;99.90;;;;;;5020820;28;20036;-83
2023/04/05 12:40:12;;;;;;;1.92;0.50;;;13.00;99.90;;;;;;5032024;28;20029;-84
2023/04/05 12:42:39;;;;;;;1.95;0.47;;;12.80;99.90;;;;;;5039678;28;20044;-84
2023/04/05 12:45:09;;;;;;;1.58;0.47;;;12.70;99.90;;;;;;5047109;28;20148;-83
2023/04/05 12:47:35;;;;;;;1.75;0.47;;;13.10;99.90;;;;;;5029833;28;20071;-81
2023/04/05 12:50:12;;;;;;;1.10;0.40;;;12.80;99.90;;;;;;5028233;28;20029;-83
2023/04/05 12:52:37;;;;;;;1.10;0.38;;;12.80;99.90;;;;;;5026289;28;20033;-84
2023/04/05 12:55:03;;;;;;;2.17;0.70;;;12.90;99.90;;;;;;5014468;28;20030;-82
2023/04/05 12:57:30;;;;;;;2.85;1.20;;;12.70;99.90;;;;;;5021471;28;20098;-83
2023/04/05 12:59:56;;;;;;;2.03;0.60;;;12.30;99.90;;;;;;5018815;28;20075;-83
2023/04/05 13:02:22;;;;;;;1.33;0.50;;;12.30;99.90;;;;;;5019843;28;20041;-82